Home PIREPS Pireps

Flight BEL2065

  • Submitted By: Vincent Fourni
  • Departure Airport: Bruxelles National (EBBR)
  • Arrival Airport: Edinburgh Airport (EGPH)
  • Aircraft: BAE AVRO RJ1 (OO-DWF)
  • Flight Time: 01.42
  • Date Submitted: 23/01/2015
  • Status: Accepted
Flight Details
Gross Revenue:
(84 load / € 0.00 per unit
€ 0.00
Fuel Cost:
(3922 fuel used @ 5.1 / unit)
€ 20,002.20

Additional Log Information:

View Log

Aircraft Used in flight is SN Brussels Airlines
20:45 Brakes are On
20:46 Brakes are Released
20:46 Brakes are On
20:46 Brakes are Released
20:47 Brakes are On
20:47 Brakes are Released
20:54 You Took off @ 161 Knots and Flaps at Position 3
Departure Weather
EBBR 231920Z 17009KT 2000 BR SCT003 BKN005 M02/M03 Q1025 NOSIGrn
20:54 Landing Gear Up @ 175 Knots and 300 Feet
20:57 Above FL100 you need to switch of the landing lights
22:13 Landing Gear Down @ 175 Knots and 2040 Feet
22:17 You Landed @ 117 Knots and with -500 Vertical Speed
Arrival Weather
EGPH 232050Z 25010KT 9999 FEW030 03/01 Q1010rn
22:23 Brakes are On
22:25 Brussels Bel-Track1.0.0.6

Comments

Commenter Comment
Vincent Fourni

Route Map

Corporate About Us Our Team Vacancies Information Fleet Route Network Rules and Regulations Operations Flight Schedules Event Center Tours Partners IVAO Vatsim Acars dev FSCB

fb Users Online No pilots online!
0 Pilot(s) and 190 Guest(s) Online
CMS by phpVMS - Design by Crazycreatives.com - Copyright © 2020 - Brussels Airlines Virtual